Hauula, Hawaii
Current Conditions -  °F | °C
As of 2:58 PM on Saturday 22 Nov 2014 (Local Time) from PHHI Reporting Station
Few Clouds Few Clouds  
Wind Chill: 80°   Ceiling: Unl
Heat Index: 82°   Visibility: 10mi
Dew Point: 66°   Wind: 8mph
Humidity: 61%   Direction: 100°E
Pressure: 30.01"   Gusts: NA
Location:  21.6°N, 157.9°W
Report Text: PHHI 230058Z AUTO 10007KT 10SM FEW055 27/19 A3001 RMK AO2 SLP152 T02690187 $
Loading
Personal Weather Stations






























Interactive Weather Map New forecast layout! Learn more

10-Day Weather Forecast

Advertisements
Track Severe Weather on mobile